Wetterstation Vordersexau
Wetterdaten: Juli 2013
Datum Temp. A. Feuchte A. Luftdruck Regen Wind Richtung Taupunkt Windchill Windben
01.07.2013 20,7 C 60 % 1016,7 hPa 0,0 l/m 2,7 km/h S-SO 11,7 C 20,5 C 1,5 km/h
02.07.2013 22,0 C 60 % 1013,5 hPa 0,0 l/m 3,8 km/h W 13,0 C 21,8 C 2,1 km/h
03.07.2013 17,6 C 78 % 1011,3 hPa 9,3 l/m 6,4 km/h W-SW 13,7 C 16,5 C 3,6 km/h
04.07.2013 18,8 C 69 % 1019,2 hPa 7,3 l/m 0,3 km/h NO 13,0 C 18,8 C 0,2 km/h
05.07.2013 21,0 C 64 % 1024,8 hPa 0,0 l/m 3,6 km/h O-NO 13,4 C 20,8 C 2,0 km/h
06.07.2013 23,6 C 58 % 1023,2 hPa 0,0 l/m 1,2 km/h O-NO 13,8 C 23,6 C 0,6 km/h
07.07.2013 23,7 C 60 % 1022,8 hPa 0,0 l/m 0,8 km/h O-NO 14,7 C 23,7 C 0,4 km/h
08.07.2013 25,3 C 55 % 1022,4 hPa 0,0 l/m 2,4 km/h NO 14,6 C 25,2 C 1,3 km/h
09.07.2013 25,3 C 57 % 1018,4 hPa 0,0 l/m 1,0 km/h O-NO 15,2 C 25,3 C 0,5 km/h
10.07.2013 24,1 C 59 % 1014,6 hPa 0,0 l/m 4,0 km/h NO 14,7 C 24,1 C 2,2 km/h
11.07.2013 20,9 C 63 % 1014,7 hPa 0,0 l/m 2,1 km/h O-SO 12,9 C 20,8 C 1,2 km/h
12.07.2013 20,4 C 59 % 1016,6 hPa 0,0 l/m 2,1 km/h N-NW 11,3 C 20,4 C 1,2 km/h
13.07.2013 21,1 C 60 % 1017,2 hPa 0,0 l/m 2,0 km/h O-NO 12,2 C 21,0 C 1,1 km/h
14.07.2013 22,2 C 59 % 1018,5 hPa 0,0 l/m 3,4 km/h O-NO 12,9 C 22,0 C 1,9 km/h
15.07.2013 22,5 C 56 % 1019,5 hPa 0,0 l/m 2,0 km/h O-NO 12,2 C 22,5 C 1,1 km/h
16.07.2013 23,7 C 55 % 1018,7 hPa 0,0 l/m 2,9 km/h NO 13,0 C 23,6 C 1,6 km/h
17.07.2013 20,8 C 69 % 1018,2 hPa 0,0 l/m 0,5 km/h O-NO 14,7 C 20,8 C 0,3 km/h
18.07.2013 22,9 C 67 % 1016,8 hPa 0,0 l/m 2,1 km/h NO 15,8 C 22,9 C 1,2 km/h
19.07.2013 22,6 C 67 % 1016,1 hPa 2,6 l/m 2,0 km/h O-NO 15,8 C 22,6 C 1,1 km/h
20.07.2013 24,6 C 58 % 1015,2 hPa 0,0 l/m 2,7 km/h NO 15,0 C 24,6 C 1,5 km/h
21.07.2013 25,8 C 58 % 1015,4 hPa 0,0 l/m 3,0 km/h O-NO 15,7 C 25,8 C 1,7 km/h
22.07.2013 27,7 C 53 % 1014,2 hPa 0,0 l/m 1,3 km/h O-NO 15,5 C 27,7 C 0,7 km/h
23.07.2013 25,8 C 60 % 1011,8 hPa 0,0 l/m 1,8 km/h N 16,5 C 25,8 C 1,0 km/h
24.07.2013 23,8 C 66 % 1013,7 hPa 0,0 l/m 2,3 km/h O-NO 16,5 C 23,8 C 1,3 km/h
25.07.2013 26,1 C 61 % 1014,3 hPa 0,0 l/m 2,7 km/h S-SO 17,2 C 26,0 C 1,5 km/h
26.07.2013 28,0 C 58 % 1012,3 hPa 0,0 l/m 1,4 km/h O-NO 17,9 C 28,0 C 0,8 km/h
27.07.2013 29,8 C 53 % 1008,0 hPa 1,0 l/m 3,1 km/h N-NO 17,1 C 29,6 C 1,7 km/h
28.07.2013 22,8 C 72 % 1010,8 hPa 11,9 l/m 1,9 km/h O-NO 17,2 C 22,8 C 1,0 km/h
29.07.2013 17,9 C 69 % 1015,6 hPa 29,5 l/m 1,1 km/h S-SO 12,1 C 17,9 C 0,6 km/h
30.07.2013 21,8 C 62 % 1019,6 hPa 0,0 l/m 8,8 km/h O-NO 13,9 C 21,0 C 4,9 km/h
31.07.2013 25,4 C 58 % 1018,6 hPa 0,0 l/m 5,2 km/h W 15,7 C 25,0 C 2,9 km/h
Min-Datum 12.07.13 22.07.13 27.07.13 6 Tage 01.07.13 - 01.07.13 12.07.13 01.07.13
Min-Zeit 05:19 17:19 20:19 - 00:19 - 06:19 05:19 00:19
Minimum 8,8 C 19 % 1004,3 hPa - 0,0 km/h - 5,7 C 8,8 C 0,0 km/h
Max-Datum 27.07.13 01.07.13 05.07.13 29.07.13 05.07.13 - 28.07.13 27.07.13 05.07.13
Max-Zeit 17:19 00:19 09:19 16:19 18:19 - 11:19 17:19 18:19
Maximum 43,5 C 82 % 1025,6 hPa 29,5 l/m 35,6 km/h
O-NO
- 22,3 C 43,5 C 19,8 km/h
O-NO
Durchschnitt 23,2 C 61 % 1016,5 hPa #61,6 l/m 2,6 km/h O-NO 14,5 C 23,1 C 1,4 km/h

Durchschnitt Minimum Temp.13,8 C
Durchschnitt Maximum Temp.34,0 C
www.sexauwetter.de